createdAt,value
2018-12-27T00:00:33.105Z,22.3
2018-12-27T00:01:22.587Z,22.4
2018-12-27T00:02:13.247Z,22.4
2018-12-27T00:03:02.707Z,22.4
2018-12-27T00:03:53.090Z,22.3
2018-12-27T00:04:42.585Z,22.4
2018-12-27T00:05:32.061Z,22.4
2018-12-27T00:06:22.155Z,22.4
2018-12-27T00:07:12.739Z,22.4
2018-12-27T00:08:03.387Z,22.4
2018-12-27T00:08:52.858Z,22.4
2018-12-27T00:09:42.645Z,22.5
2018-12-27T00:10:33.634Z,22.5
2018-12-27T00:11:21.907Z,22.5
2018-12-27T00:12:13.931Z,22.5
2018-12-27T00:13:03.229Z,22.6
2018-12-27T00:13:53.841Z,22.6
2018-12-27T00:14:43.511Z,22.6
2018-12-27T00:33:05.930Z,22.4
2018-12-27T00:33:47.795Z,22.4
2018-12-27T00:34:37.708Z,22.4
2018-12-27T00:35:27.750Z,22.4
2018-12-27T00:36:18.100Z,22.3
2018-12-27T00:37:08.213Z,22.4
2018-12-27T00:37:57.905Z,22.4
2018-12-27T00:38:47.683Z,22.4
2018-12-27T00:39:37.478Z,22.4
2018-12-27T00:40:27.867Z,22.4
2018-12-27T00:41:18.134Z,22.4
2018-12-27T00:42:07.932Z,22.4
2018-12-27T00:42:59.985Z,22.4
2018-12-27T00:43:48.004Z,22.4
2018-12-27T00:44:38.165Z,22.5
2018-12-27T00:45:28.282Z,22.5
2018-12-27T00:46:17.187Z,22.5
2018-12-27T00:47:07.724Z,22.6
2018-12-27T00:47:57.800Z,22.6
2018-12-27T00:48:48.401Z,22.6
2018-12-27T00:49:39.042Z,22.6
2018-12-27T00:50:28.272Z,22.6
2018-12-27T00:51:18.532Z,22.6
2018-12-27T00:52:08.877Z,22.7
2018-12-27T00:52:58.382Z,22.7
2018-12-27T00:53:48.976Z,22.7
2018-12-27T00:54:38.502Z,22.7
2018-12-27T00:55:29.127Z,22.7
2018-12-27T00:56:18.129Z,22.7
2018-12-27T00:57:09.606Z,22.7
2018-12-27T00:57:59.159Z,22.6
2018-12-27T00:58:49.557Z,22.6
2018-12-27T00:59:39.199Z,22.6
2018-12-27T01:00:28.227Z,22.6
2018-12-27T01:01:19.376Z,22.6
2018-12-27T01:02:08.561Z,22.6
2018-12-27T01:02:58.853Z,22.5
2018-12-27T01:03:49.984Z,22.5
2018-12-27T01:04:39.563Z,22.4
2018-12-27T01:05:28.959Z,22.4
2018-12-27T01:06:19.482Z,22.4
2018-12-27T01:07:09.107Z,22.4
2018-12-27T01:07:59.716Z,22.3
2018-12-27T01:08:50.333Z,22.3
2018-12-27T01:09:55.320Z,22.3
2018-12-27T01:10:30.416Z,22.3
2018-12-27T01:11:19.928Z,22.3
2018-12-27T01:12:10.261Z,22.3
2018-12-27T01:13:00.338Z,22.3
2018-12-27T01:13:49.955Z,22.3
2018-12-27T01:14:40.406Z,22.3
2018-12-27T01:15:30.180Z,22.4
2018-12-27T01:16:20.616Z,22.4
2018-12-27T01:17:09.595Z,22.4
2018-12-27T01:18:00.235Z,22.4
2018-12-27T01:18:50.743Z,22.4
2018-12-27T01:19:39.205Z,22.4
2018-12-27T01:20:30.898Z,22.4
2018-12-27T01:21:20.697Z,22.5
2018-12-27T01:22:10.202Z,22.6
2018-12-27T01:23:00.275Z,22.6
2018-12-27T01:23:51.130Z,22.6
2018-12-27T01:24:39.913Z,22.6
2018-12-27T01:25:30.627Z,22.6
2018-12-27T01:26:21.687Z,22.6
2018-12-27T01:27:10.809Z,22.6
2018-12-27T01:28:00.857Z,22.6
2018-12-27T01:28:50.207Z,22.6
2018-12-27T01:29:42.092Z,22.6
2018-12-27T01:30:30.285Z,22.7
2018-12-27T01:31:21.606Z,22.7
2018-12-27T01:32:10.607Z,22.7
2018-12-27T01:33:01.753Z,22.7
2018-12-27T01:33:52.374Z,22.6
2018-12-27T01:34:41.854Z,22.6
2018-12-27T01:35:31.919Z,22.6
2018-12-27T01:36:21.469Z,22.6
2018-12-27T01:37:12.001Z,22.6
2018-12-27T01:38:00.636Z,22.6
2018-12-27T01:38:52.665Z,22.5
2018-12-27T01:39:41.656Z,22.5
2018-12-27T01:40:31.662Z,22.5
2018-12-27T01:41:22.008Z,22.4
2018-12-27T01:42:12.325Z,22.4
2018-12-27T01:43:02.101Z,22.4
2018-12-27T01:43:52.731Z,22.3
2018-12-27T01:44:41.931Z,22.3
2018-12-27T01:45:31.998Z,22.3
2018-12-27T01:46:22.876Z,22.3
2018-12-27T01:47:12.721Z,22.3
2018-12-27T01:48:02.181Z,22.3
2018-12-27T01:48:52.218Z,22.4
2018-12-27T01:49:43.371Z,22.4
2018-12-27T01:50:32.937Z,22.4
2018-12-27T01:51:22.961Z,22.4
2018-12-27T01:52:11.601Z,22.4
2018-12-27T01:53:02.546Z,22.4
2018-12-27T01:53:53.213Z,22.4
2018-12-27T01:54:43.180Z,22.4
2018-12-27T01:55:33.226Z,22.4
2018-12-27T01:56:23.565Z,22.4
2018-12-27T01:57:13.192Z,22.4
2018-12-27T01:58:03.660Z,22.4
2018-12-27T01:58:53.512Z,22.4
2018-12-27T01:59:42.693Z,22.4
2018-12-27T02:00:33.022Z,22.4
2018-12-27T02:01:23.621Z,22.4
2018-12-27T02:02:13.955Z,22.4
2018-12-27T02:03:03.188Z,22.5
2018-12-27T02:03:54.312Z,22.5
2018-12-27T02:04:43.635Z,22.5
2018-12-27T02:05:33.905Z,22.5
2018-12-27T02:06:23.952Z,22.5
2018-12-27T02:07:14.277Z,22.6
2018-12-27T02:08:04.081Z,22.6
2018-12-27T02:08:53.837Z,22.6
2018-12-27T02:09:43.919Z,22.6
2018-12-27T02:10:34.336Z,22.6
2018-12-27T02:11:24.290Z,22.6
2018-12-27T02:12:14.429Z,22.6
2018-12-27T02:13:04.698Z,22.7
2018-12-27T02:13:54.468Z,22.7
2018-12-27T02:14:44.333Z,22.7
2018-12-27T02:15:34.324Z,22.6
2018-12-27T02:16:24.109Z,22.7
2018-12-27T02:17:14.446Z,22.7
2018-12-27T02:18:05.386Z,22.6
2018-12-27T02:18:54.835Z,22.6
2018-12-27T02:19:44.598Z,22.6
2018-12-27T02:20:34.671Z,22.6
2018-12-27T02:21:25.834Z,22.6
2018-12-27T02:22:14.554Z,22.5
2018-12-27T02:23:05.391Z,22.5
2018-12-27T02:23:54.623Z,22.5
2018-12-27T02:24:45.507Z,22.4
2018-12-27T02:25:34.749Z,22.4
2018-12-27T02:26:26.153Z,22.4
2018-12-27T02:27:15.630Z,22.4
2018-12-27T02:28:05.456Z,22.4
2018-12-27T02:28:54.681Z,22.4
2018-12-27T02:29:46.113Z,22.3
2018-12-27T02:30:35.393Z,22.3
2018-12-27T02:31:25.530Z,22.3
2018-12-27T02:32:16.396Z,22.3
2018-12-27T02:33:05.540Z,22.3
2018-12-27T02:33:55.558Z,22.3
2018-12-27T02:34:46.207Z,22.4
2018-12-27T02:35:36.566Z,22.4
2018-12-27T02:36:26.046Z,22.4
2018-12-27T02:37:15.901Z,22.4
2018-12-27T02:38:06.223Z,22.4
2018-12-27T02:38:55.945Z,22.5
2018-12-27T02:39:47.206Z,22.5
2018-12-27T02:40:36.615Z,22.5
2018-12-27T02:41:25.867Z,22.6
2018-12-27T02:42:16.823Z,22.6
2018-12-27T02:43:06.521Z,22.6
2018-12-27T02:43:56.577Z,22.6
2018-12-27T02:44:45.874Z,22.6
2018-12-27T02:45:36.955Z,22.7
2018-12-27T02:46:25.905Z,22.7
2018-12-27T02:47:16.783Z,22.7
2018-12-27T02:48:07.180Z,22.7
2018-12-27T02:48:56.906Z,22.8
2018-12-27T02:49:46.460Z,22.8
2018-12-27T02:50:36.522Z,22.7
2018-12-27T02:51:26.268Z,22.7
2018-12-27T02:52:16.577Z,22.7
2018-12-27T02:53:06.614Z,22.7
2018-12-27T02:53:56.984Z,22.7
2018-12-27T02:54:46.729Z,22.7
2018-12-27T02:55:37.373Z,22.6
2018-12-27T02:56:27.141Z,22.6
2018-12-27T02:57:17.788Z,22.6
2018-12-27T02:58:07.549Z,22.6
2018-12-27T02:58:56.739Z,22.6
2018-12-27T02:59:47.184Z,22.5
2018-12-27T03:00:37.154Z,22.5
2018-12-27T03:01:25.907Z,22.5
2018-12-27T03:02:18.079Z,22.4
2018-12-27T03:03:08.445Z,22.4
2018-12-27T03:03:57.962Z,22.4
2018-12-27T03:04:47.440Z,22.4
2018-12-27T03:05:38.676Z,22.3
2018-12-27T03:06:27.283Z,22.4
2018-12-27T03:07:18.446Z,22.4
2018-12-27T03:08:07.917Z,22.4
2018-12-27T03:08:57.748Z,22.4
2018-12-27T03:09:48.164Z,22.4
2018-12-27T03:10:38.627Z,22.4
2018-12-27T03:11:27.618Z,22.4
2018-12-27T03:12:18.288Z,22.4
2018-12-27T03:13:06.954Z,22.4
2018-12-27T03:13:57.840Z,22.4
2018-12-27T03:14:48.789Z,22.5
2018-12-27T03:15:38.801Z,22.5
2018-12-27T03:16:28.796Z,22.6
2018-12-27T03:17:18.710Z,22.6
2018-12-27T03:18:08.443Z,22.6
2018-12-27T03:18:58.463Z,22.6
2018-12-27T03:19:48.838Z,22.6
2018-12-27T03:20:39.064Z,22.7
2018-12-27T03:21:28.708Z,22.7
2018-12-27T03:22:18.996Z,22.7
2018-12-27T03:23:09.028Z,22.7
2018-12-27T03:23:58.772Z,22.7
2018-12-27T03:24:49.157Z,22.7
2018-12-27T03:25:38.268Z,22.7
2018-12-27T03:26:29.669Z,22.7
2018-12-27T03:27:18.359Z,22.7
2018-12-27T03:28:08.436Z,22.7
2018-12-27T03:28:58.486Z,22.6
2018-12-27T03:29:49.062Z,22.6
2018-12-27T03:30:38.652Z,22.6
2018-12-27T03:31:29.724Z,22.6
2018-12-27T03:32:19.344Z,22.6
2018-12-27T03:33:09.334Z,22.6
2018-12-27T03:33:59.215Z,22.5
2018-12-27T03:34:49.613Z,22.5
2018-12-27T03:35:39.137Z,22.4
2018-12-27T03:36:28.823Z,22.4
2018-12-27T03:37:19.875Z,22.4
2018-12-27T03:38:09.895Z,22.4
2018-12-27T03:38:59.492Z,22.4
2018-12-27T03:39:49.429Z,22.4
2018-12-27T03:40:39.745Z,22.4
2018-12-27T03:41:30.003Z,22.3
2018-12-27T03:42:19.133Z,22.3
2018-12-27T03:43:09.969Z,22.4
2018-12-27T03:43:59.208Z,22.4
2018-12-27T03:44:49.220Z,22.4
2018-12-27T03:45:39.866Z,22.4
2018-12-27T03:46:28.752Z,22.4
2018-12-27T03:47:19.933Z,22.4
2018-12-27T03:48:10.318Z,22.4
2018-12-27T03:49:01.393Z,22.4
2018-12-27T03:49:50.344Z,22.4
2018-12-27T03:50:39.835Z,22.3
2018-12-27T03:51:29.965Z,22.4
2018-12-27T03:52:20.707Z,22.3
2018-12-27T03:53:10.611Z,22.4
2018-12-27T03:54:00.906Z,22.4
2018-12-27T03:54:51.034Z,22.4
2018-12-27T03:55:40.106Z,22.4
2018-12-27T03:56:30.584Z,22.4
2018-12-27T03:57:20.366Z,22.4
2018-12-27T03:58:10.883Z,22.5
2018-12-27T03:59:00.437Z,22.5
2018-12-27T03:59:51.198Z,22.6
2018-12-27T04:00:41.401Z,22.6
2018-12-27T04:01:31.213Z,22.6
2018-12-27T04:02:20.722Z,22.6
2018-12-27T04:03:11.755Z,22.6
2018-12-27T04:04:07.279Z,22.6
2018-12-27T04:04:52.142Z,22.6
2018-12-27T04:05:41.941Z,22.6
2018-12-27T04:06:31.468Z,22.6
2018-12-27T04:07:21.751Z,22.7
2018-12-27T04:08:11.880Z,22.7
2018-12-27T04:09:00.795Z,22.7
2018-12-27T04:09:52.606Z,22.8
2018-12-27T04:10:42.318Z,22.8
2018-12-27T04:11:32.140Z,22.8
2018-12-27T04:12:23.210Z,22.8
2018-12-27T04:13:12.775Z,22.7
2018-12-27T04:14:01.728Z,22.7
2018-12-27T04:14:52.315Z,22.7
2018-12-27T04:15:42.608Z,22.6
2018-12-27T04:16:33.262Z,22.6
2018-12-27T04:17:23.085Z,22.6
2018-12-27T04:18:13.055Z,22.6
2018-12-27T04:19:03.058Z,22.6
2018-12-27T04:19:52.675Z,22.6
2018-12-27T04:20:42.713Z,22.5
2018-12-27T04:21:32.474Z,22.5
2018-12-27T04:22:22.369Z,22.4
2018-12-27T04:23:12.642Z,22.4
2018-12-27T04:24:02.955Z,22.4
2018-12-27T04:25:08.245Z,22.4
2018-12-27T04:25:42.788Z,22.3
2018-12-27T04:26:32.920Z,22.3
2018-12-27T04:27:22.282Z,22.3
2018-12-27T04:28:12.692Z,22.3
2018-12-27T04:29:02.514Z,22.4
2018-12-27T04:29:52.851Z,22.4
2018-12-27T04:30:43.672Z,22.4
2018-12-27T04:31:33.937Z,22.4
2018-12-27T04:32:23.453Z,22.4
2018-12-27T04:33:14.294Z,22.4
2018-12-27T04:34:12.086Z,22.4
2018-12-27T04:34:54.294Z,22.5
2018-12-27T04:35:43.748Z,22.5
2018-12-27T04:36:34.356Z,22.5
2018-12-27T04:37:24.364Z,22.5
2018-12-27T04:38:13.289Z,22.6
2018-12-27T04:39:03.867Z,22.6
2018-12-27T04:39:54.521Z,22.6
2018-12-27T04:40:44.894Z,22.6
2018-12-27T04:41:34.465Z,22.6
2018-12-27T04:42:25.021Z,22.6
2018-12-27T04:43:14.736Z,22.6
2018-12-27T04:44:04.846Z,22.6
2018-12-27T04:44:54.571Z,22.7
2018-12-27T05:02:13.648Z,22.4
2018-12-27T05:03:03.935Z,22.3
2018-12-27T05:03:53.690Z,22.3
2018-12-27T05:04:43.701Z,22.3
2018-12-27T05:05:34.391Z,22.2
2018-12-27T05:06:23.259Z,22.1
2018-12-27T05:07:13.375Z,22
2018-12-27T05:08:04.954Z,21.9
2018-12-27T05:08:54.128Z,21.9
2018-12-27T05:09:43.441Z,21.8
2018-12-27T05:10:33.864Z,21.8
2018-12-27T05:11:24.534Z,21.8
2018-12-27T05:12:13.622Z,21.7
2018-12-27T05:13:04.049Z,21.6
2018-12-27T05:13:54.004Z,21.6
2018-12-27T05:14:44.106Z,21.6
2018-12-27T05:15:34.753Z,21.6
2018-12-27T05:16:23.646Z,21.6
2018-12-27T05:17:14.569Z,21.5
2018-12-27T05:18:05.184Z,21.5
2018-12-27T05:18:54.739Z,21.6
2018-12-27T05:19:44.438Z,21.6
2018-12-27T05:20:34.826Z,21.5
2018-12-27T05:21:24.101Z,21.6
2018-12-27T05:22:14.045Z,21.5
2018-12-27T05:23:04.991Z,21.5
2018-12-27T05:23:54.280Z,21.4
2018-12-27T05:24:43.963Z,21.3
2018-12-27T05:25:34.569Z,21.2
2018-12-27T05:26:24.616Z,21.1
2018-12-27T05:27:15.250Z,21
2018-12-27T05:28:05.141Z,20.9
2018-12-27T05:28:55.703Z,20.9
2018-12-27T05:29:44.245Z,20.9
2018-12-27T05:30:34.686Z,20.9
2018-12-27T05:31:24.676Z,20.9
2018-12-27T05:32:15.512Z,20.8
2018-12-27T05:33:04.890Z,20.8
2018-12-27T05:33:55.991Z,20.7
2018-12-27T05:34:46.285Z,20.6
2018-12-27T05:35:36.027Z,20.6
2018-12-27T05:36:25.069Z,20.6
2018-12-27T05:37:16.537Z,20.6
2018-12-27T05:38:05.452Z,20.6
2018-12-27T05:38:55.725Z,20.6
2018-12-27T05:39:46.334Z,20.6
2018-12-27T05:40:35.821Z,20.6
2018-12-27T05:41:26.160Z,20.6
2018-12-27T05:42:15.637Z,20.6
2018-12-27T05:43:06.352Z,20.6
2018-12-27T05:43:56.611Z,20.7
2018-12-27T05:44:46.397Z,20.8
2018-12-27T05:45:35.621Z,20.8
2018-12-27T05:46:25.676Z,20.9
2018-12-27T05:47:17.109Z,20.9
2018-12-27T05:48:07.126Z,20.9
2018-12-27T05:48:57.001Z,20.9
2018-12-27T05:49:46.534Z,21
2018-12-27T05:50:37.083Z,21
2018-12-27T05:51:26.824Z,21.1
2018-12-27T05:52:16.959Z,21.1
2018-12-27T05:53:06.126Z,21.1
2018-12-27T06:00:37.509Z,21.2
2018-12-27T06:02:16.755Z,21.2
2018-12-27T06:03:08.269Z,21.2
2018-12-27T06:03:57.939Z,21.2
2018-12-27T06:04:47.226Z,21.2
2018-12-27T06:05:37.318Z,21.2
2018-12-27T06:06:28.098Z,21.3
2018-12-27T06:07:18.198Z,21.3
2018-12-27T06:08:07.768Z,21.3
2018-12-27T06:08:58.276Z,21.3
2018-12-27T06:09:48.102Z,21.3
2018-12-27T06:10:38.435Z,21.3
2018-12-27T06:11:28.188Z,21.4
2018-12-27T06:12:18.827Z,21.4
2018-12-27T06:13:08.097Z,21.4
2018-12-27T06:13:58.686Z,21.5
2018-12-27T06:14:47.308Z,21.5
2018-12-27T06:15:38.521Z,21.6
2018-12-27T06:16:28.063Z,21.6
2018-12-27T06:17:17.772Z,21.6
2018-12-27T06:18:08.425Z,21.6
2018-12-27T06:18:58.110Z,21.7
2018-12-27T06:19:48.544Z,21.6
2018-12-27T06:20:37.697Z,21.6
2018-12-27T06:21:28.047Z,21.6
2018-12-27T06:22:18.162Z,21.6
2018-12-27T06:23:09.070Z,21.6
2018-12-27T06:23:59.882Z,21.6
2018-12-27T06:24:49.362Z,21.6
2018-12-27T06:25:39.218Z,21.6
2018-12-27T06:26:29.783Z,21.6
2018-12-27T06:27:18.775Z,21.6
2018-12-27T06:28:08.492Z,21.6
2018-12-27T06:28:59.630Z,21.6
2018-12-27T06:29:49.519Z,21.6
2018-12-27T06:30:40.099Z,21.5
2018-12-27T06:31:28.984Z,21.5
2018-12-27T06:32:19.972Z,21.5
2018-12-27T06:33:09.987Z,21.5
2018-12-27T06:33:59.569Z,21.5
2018-12-27T06:34:49.782Z,21.5
2018-12-27T06:35:39.155Z,21.5
2018-12-27T06:36:29.462Z,21.5
2018-12-27T06:37:20.496Z,21.5
2018-12-27T06:38:10.304Z,21.6
2018-12-27T06:39:00.439Z,21.6
2018-12-27T06:39:50.374Z,21.6
2018-12-27T06:40:40.146Z,21.6
2018-12-27T06:41:30.516Z,21.6
2018-12-27T06:42:20.351Z,21.6
2018-12-27T06:43:09.522Z,21.6
2018-12-27T06:44:00.495Z,21.6
2018-12-27T06:44:50.177Z,21.6
2018-12-27T06:45:40.563Z,21.6
2018-12-27T06:46:30.639Z,21.6
2018-12-27T06:47:20.893Z,21.6
2018-12-27T06:48:10.678Z,21.6
2018-12-27T06:49:02.628Z,21.7
2018-12-27T06:49:50.516Z,21.7
2018-12-27T06:50:40.548Z,21.7
2018-12-27T06:51:30.678Z,21.6
2018-12-27T06:52:20.903Z,21.7
2018-12-27T06:53:11.138Z,21.7
2018-12-27T06:54:00.872Z,21.8
2018-12-27T06:54:51.820Z,21.7
2018-12-27T06:55:41.256Z,21.6
2018-12-27T06:56:31.528Z,21.7
2018-12-27T06:57:21.576Z,21.6
2018-12-27T06:58:10.818Z,21.6
2018-12-27T06:59:01.703Z,21.6
2018-12-27T06:59:50.499Z,21.6
2018-12-27T07:00:41.790Z,21.6
2018-12-27T07:01:31.938Z,21.6
2018-12-27T07:02:21.109Z,21.6
2018-12-27T07:03:11.707Z,21.5
2018-12-27T07:04:01.467Z,21.4
2018-12-27T07:04:55.674Z,21.4
2018-12-27T07:05:42.165Z,21.4
2018-12-27T07:06:32.015Z,21.4
2018-12-27T07:07:20.893Z,21.4
2018-12-27T07:08:12.102Z,21.3
2018-12-27T07:09:02.122Z,21.3
2018-12-27T07:09:51.351Z,21.3
2018-12-27T07:10:42.460Z,21.3
2018-12-27T07:11:31.768Z,21.3
2018-12-27T07:12:22.159Z,21.3
2018-12-27T07:13:12.196Z,21.3
2018-12-27T07:14:02.179Z,21.3
2018-12-27T07:14:51.926Z,21.3
2018-12-27T07:15:42.390Z,21.3
2018-12-27T07:16:31.793Z,21.3
2018-12-27T07:17:21.894Z,21.3
2018-12-27T07:18:11.703Z,21.3
2018-12-27T07:19:05.115Z,21.3
2018-12-27T07:19:52.590Z,21.3
2018-12-27T07:20:43.453Z,21.3
2018-12-27T07:21:32.682Z,21.3
2018-12-27T07:22:23.010Z,21.3
2018-12-27T07:23:13.377Z,21.3
2018-12-27T07:24:03.115Z,21.3
2018-12-27T07:24:52.350Z,21.3
2018-12-27T07:25:43.634Z,21.3
2018-12-27T07:26:32.451Z,21.3
2018-12-27T07:27:22.305Z,21.3
2018-12-27T07:28:13.158Z,21.3
2018-12-27T07:29:04.027Z,21.3
2018-12-27T07:29:52.146Z,21.3
2018-12-27T07:30:43.894Z,21.3
2018-12-27T07:31:33.522Z,21.3
2018-12-27T07:32:23.410Z,21.3
2018-12-27T07:33:13.200Z,21.3
2018-12-27T07:34:03.785Z,21.3
2018-12-27T07:35:01.311Z,21.4
2018-12-27T07:35:43.927Z,21.4
2018-12-27T07:36:33.134Z,21.4
2018-12-27T07:37:24.009Z,21.4
2018-12-27T07:38:14.344Z,21.4
2018-12-27T07:39:04.494Z,21.4
2018-12-27T07:39:54.734Z,21.4
2018-12-27T07:40:44.282Z,21.4
2018-12-27T07:41:34.257Z,21.4
2018-12-27T07:42:24.649Z,21.4
2018-12-27T07:43:14.123Z,21.4
2018-12-27T07:44:04.848Z,21.4
2018-12-27T07:44:54.034Z,21.4
2018-12-27T07:45:44.014Z,21.4
2018-12-27T07:46:34.731Z,21.4
2018-12-27T07:47:23.876Z,21.4
2018-12-27T07:48:15.029Z,21.4
2018-12-27T07:49:04.534Z,21.4
2018-12-27T07:49:54.584Z,21.4
2018-12-27T07:50:45.194Z,21.4
2018-12-27T07:51:34.700Z,21.5
2018-12-27T07:52:25.676Z,21.5
2018-12-27T07:53:15.349Z,21.5
2018-12-27T07:54:06.203Z,21.4
2018-12-27T07:54:55.185Z,21.4
2018-12-27T07:55:45.264Z,21.4
2018-12-27T07:56:35.826Z,21.4
2018-12-27T07:57:25.963Z,21.4
2018-12-27T07:58:14.871Z,21.4
2018-12-27T07:59:05.770Z,21.4
2018-12-27T07:59:55.791Z,21.4
2018-12-27T08:00:45.072Z,21.4
2018-12-27T08:01:35.625Z,21.5
2018-12-27T08:02:25.230Z,21.6
2018-12-27T08:03:15.745Z,21.6
2018-12-27T08:04:05.830Z,21.6
2018-12-27T08:04:55.700Z,21.5
2018-12-27T08:05:45.118Z,21.5
2018-12-27T08:06:35.722Z,21.6
2018-12-27T08:07:26.165Z,21.6
2018-12-27T08:08:16.377Z,21.6
2018-12-27T08:09:05.600Z,21.5
2018-12-27T08:09:55.963Z,21.5
2018-12-27T08:10:46.060Z,21.4
2018-12-27T08:11:36.330Z,21.4
2018-12-27T08:12:26.452Z,21.4
2018-12-27T08:13:16.152Z,21.4
2018-12-27T08:14:05.732Z,21.4
2018-12-27T08:14:57.128Z,21.4
2018-12-27T08:15:47.272Z,21.4
2018-12-27T08:16:36.969Z,21.4
2018-12-27T08:17:26.711Z,21.4
2018-12-27T08:18:16.765Z,21.4
2018-12-27T08:19:06.866Z,21.4
2018-12-27T08:19:56.959Z,21.4
2018-12-27T08:20:46.111Z,21.4
2018-12-27T08:21:36.757Z,21.4
2018-12-27T08:22:27.857Z,21.4
2018-12-27T08:23:16.037Z,21.4
2018-12-27T08:24:07.489Z,21.4
2018-12-27T08:24:57.226Z,21.4
2018-12-27T08:25:46.448Z,21.4
2018-12-27T08:26:38.233Z,21.4
2018-12-27T08:27:27.395Z,21.4
2018-12-27T08:28:17.016Z,21.4
2018-12-27T08:29:07.254Z,21.4
2018-12-27T08:29:57.521Z,21.3
2018-12-27T08:30:47.887Z,21.3
2018-12-27T08:31:37.961Z,21.3
2018-12-27T08:32:26.883Z,21.3
2018-12-27T08:33:17.267Z,21.3
2018-12-27T08:34:07.318Z,21.3
2018-12-27T08:34:57.348Z,21.3
2018-12-27T08:35:47.413Z,21.3
2018-12-27T08:36:38.536Z,21.3
2018-12-27T08:37:28.341Z,21.3
2018-12-27T08:38:18.405Z,21.3
2018-12-27T08:39:08.188Z,21.3
2018-12-27T08:39:57.647Z,21.3
2018-12-27T08:40:47.987Z,21.3
2018-12-27T08:41:37.556Z,21.3
2018-12-27T08:42:28.130Z,21.3
2018-12-27T08:43:18.807Z,21.4
2018-12-27T08:44:07.998Z,21.4
2018-12-27T08:44:57.997Z,21.4
2018-12-27T08:45:48.630Z,21.4
2018-12-27T08:46:38.967Z,21.4
2018-12-27T08:47:30.995Z,21.4
2018-12-27T08:48:18.498Z,21.4
2018-12-27T08:49:09.104Z,21.4
2018-12-27T08:49:58.628Z,21.4
2018-12-27T08:50:47.917Z,21.4
2018-12-27T08:51:38.805Z,21.4
2018-12-27T08:52:27.823Z,21.4
2018-12-27T08:53:18.682Z,21.4
2018-12-27T08:54:09.173Z,21.4
2018-12-27T08:54:58.957Z,21.4
2018-12-27T08:55:49.344Z,21.4
2018-12-27T08:56:39.608Z,21.4
2018-12-27T08:57:29.965Z,21.4
2018-12-27T08:58:18.889Z,21.4
2018-12-27T08:59:10.060Z,21.4
2018-12-27T08:59:59.314Z,21.4
2018-12-27T09:00:48.487Z,21.4
2018-12-27T09:16:36.393Z,21.4
2018-12-27T09:17:26.733Z,21.4
2018-12-27T09:18:16.603Z,21.4
2018-12-27T09:19:07.432Z,21.4
2018-12-27T09:19:56.878Z,21.4
2018-12-27T09:20:46.725Z,21.4
2018-12-27T09:21:36.288Z,21.4
2018-12-27T09:22:26.850Z,21.4
2018-12-27T09:23:17.160Z,21.4
2018-12-27T09:24:07.710Z,21.4
2018-12-27T09:24:56.931Z,21.4
2018-12-27T09:25:49.495Z,21.3
2018-12-27T09:26:37.589Z,21.3
2018-12-27T09:27:27.709Z,21.3
2018-12-27T09:28:17.193Z,21.3
2018-12-27T09:29:07.482Z,21.3
2018-12-27T09:29:57.271Z,21.3
2018-12-27T09:30:46.684Z,21.3
2018-12-27T09:31:37.102Z,21.3
2018-12-27T09:32:28.562Z,21.3
2018-12-27T09:33:18.064Z,21.4
2018-12-27T09:34:07.899Z,21.3
2018-12-27T09:34:56.862Z,21.4
2018-12-27T09:35:47.486Z,21.4
2018-12-27T09:36:38.319Z,21.4
2018-12-27T09:37:28.082Z,21.4
2018-12-27T09:38:18.129Z,21.4
2018-12-27T09:39:08.751Z,21.4
2018-12-27T09:39:57.731Z,21.4
2018-12-27T09:40:48.079Z,21.4
2018-12-27T09:41:38.444Z,21.4
2018-12-27T09:42:29.343Z,21.4
2018-12-27T09:43:18.046Z,21.4
2018-12-27T09:44:09.163Z,21.5
2018-12-27T09:44:59.399Z,21.5
2018-12-27T09:45:47.848Z,21.5
2018-12-27T09:46:38.150Z,21.5
2018-12-27T09:47:29.005Z,21.5
2018-12-27T09:48:18.309Z,21.4
2018-12-27T09:49:08.636Z,21.4
2018-12-27T09:49:58.963Z,21.4
2018-12-27T09:50:49.076Z,21.4
2018-12-27T09:51:39.373Z,21.4
2018-12-27T09:52:29.220Z,21.4
2018-12-27T09:53:18.908Z,21.4
2018-12-27T09:54:08.147Z,21.4
2018-12-27T09:54:58.548Z,21.4
2018-12-27T09:55:49.152Z,21.4
2018-12-27T09:56:39.516Z,21.4
2018-12-27T09:57:29.413Z,21.4
2018-12-27T09:58:19.037Z,21.3
2018-12-27T09:59:08.770Z,21.3
2018-12-27T09:59:58.912Z,21.3
2018-12-27T10:00:48.978Z,21.3
2018-12-27T10:01:39.368Z,21.3
2018-12-27T10:02:28.983Z,21.3
2018-12-27T10:03:18.638Z,21.3
2018-12-27T10:04:09.188Z,21.3
2018-12-27T10:04:58.687Z,21.3
2018-12-27T10:05:49.042Z,21.3
2018-12-27T10:06:40.429Z,21.3
2018-12-27T10:07:29.577Z,21.3
2018-12-27T10:08:18.072Z,21.3
2018-12-27T10:09:08.991Z,21.4
2018-12-27T10:10:00.351Z,21.4
2018-12-27T10:10:50.122Z,21.4
2018-12-27T10:11:40.512Z,21.4
2018-12-27T10:12:30.756Z,21.4
2018-12-27T10:13:20.189Z,21.4
2018-12-27T10:14:11.100Z,21.4
2018-12-27T10:15:01.092Z,21.4
2018-12-27T10:15:50.177Z,21.4
2018-12-27T10:16:41.260Z,21.4
2018-12-27T10:17:30.769Z,21.4
2018-12-27T10:18:20.569Z,21.4
2018-12-27T10:19:10.886Z,21.4
2018-12-27T10:20:01.144Z,21.4
2018-12-27T10:20:51.284Z,21.4
2018-12-27T10:21:41.334Z,21.5
2018-12-27T10:22:30.889Z,21.4
2018-12-27T10:23:21.972Z,21.4
2018-12-27T10:24:10.754Z,21.4
2018-12-27T10:25:01.859Z,21.4
2018-12-27T10:25:51.349Z,21.4
2018-12-27T10:26:40.876Z,21.4
2018-12-27T10:27:31.736Z,21.4
2018-12-27T10:28:21.911Z,21.4
2018-12-27T10:29:11.636Z,21.4
2018-12-27T10:30:01.129Z,21.4
2018-12-27T10:30:51.417Z,21.4
2018-12-27T10:31:41.464Z,21.4
2018-12-27T10:32:31.784Z,21.4
2018-12-27T10:33:22.155Z,21.4
2018-12-27T10:34:12.451Z,21.3
2018-12-27T10:35:02.291Z,21.3
2018-12-27T10:35:53.113Z,21.3
2018-12-27T10:36:44.536Z,21.3
2018-12-27T10:37:32.123Z,21.3
2018-12-27T10:38:23.266Z,21.3
2018-12-27T10:39:11.418Z,21.3
2018-12-27T10:40:02.861Z,21.3
2018-12-27T10:40:52.620Z,21.3
2018-12-27T10:41:42.961Z,21.3
2018-12-27T10:42:32.175Z,21.3
2018-12-27T10:43:22.750Z,21.3
2018-12-27T10:44:13.097Z,21.3
2018-12-27T10:45:02.374Z,21.3
2018-12-27T10:45:52.696Z,21.3
2018-12-27T10:46:42.750Z,21.3
2018-12-27T10:47:32.935Z,21.3
2018-12-27T10:48:22.840Z,21.3
2018-12-27T10:49:13.493Z,21.3
2018-12-27T10:50:02.815Z,21.3
2018-12-27T10:50:52.758Z,21.3
2018-12-27T10:51:43.727Z,21.3
2018-12-27T10:52:33.512Z,21.3
2018-12-27T10:53:23.279Z,21.3
2018-12-27T10:54:14.070Z,21.3
2018-12-27T10:55:03.595Z,21.3
2018-12-27T10:55:53.099Z,21.3
2018-12-27T10:56:44.050Z,21.3
2018-12-27T10:57:36.739Z,21.3
2018-12-27T10:58:22.989Z,21.3
2018-12-27T10:59:13.970Z,21.3
2018-12-27T11:00:04.509Z,21.3
2018-12-27T11:00:54.077Z,21.4
2018-12-27T11:01:44.019Z,21.4
2018-12-27T11:02:34.387Z,21.4
2018-12-27T11:03:31.912Z,21.4
2018-12-27T11:04:14.599Z,21.4
2018-12-27T11:05:04.889Z,21.4
2018-12-27T11:05:54.206Z,21.4
2018-12-27T11:06:44.444Z,21.4
2018-12-27T11:07:34.989Z,21.4
2018-12-27T11:08:23.909Z,21.4
2018-12-27T11:09:13.480Z,21.4
2018-12-27T11:10:05.296Z,21.4
2018-12-27T11:10:53.321Z,21.4
2018-12-27T11:11:44.129Z,21.4
2018-12-27T11:12:35.029Z,21.4
2018-12-27T11:13:24.546Z,21.4
2018-12-27T11:14:14.651Z,21.4
2018-12-27T11:15:04.993Z,21.4
2018-12-27T11:15:55.773Z,21.4
2018-12-27T11:16:44.498Z,21.4
2018-12-27T11:17:35.072Z,21.4
2018-12-27T11:18:25.153Z,21.3
2018-12-27T11:19:14.710Z,21.4
2018-12-27T11:20:05.280Z,21.4
2018-12-27T11:20:55.362Z,21.3
2018-12-27T11:21:45.700Z,21.3
2018-12-27T11:22:36.009Z,21.3
2018-12-27T11:23:25.232Z,21.3
2018-12-27T11:24:15.277Z,21.3
2018-12-27T11:25:05.387Z,21.3
2018-12-27T11:25:55.140Z,21.3
2018-12-27T11:26:46.559Z,21.3
2018-12-27T11:27:35.774Z,21.3
2018-12-27T11:28:25.810Z,21.3
2018-12-27T11:29:15.338Z,21.3
2018-12-27T11:30:06.024Z,21.3
2018-12-27T11:30:55.221Z,21.3
2018-12-27T11:31:46.349Z,21.4
2018-12-27T11:32:36.123Z,21.4
2018-12-27T11:33:25.387Z,21.4
2018-12-27T11:34:15.461Z,21.4
2018-12-27T11:35:06.666Z,21.4
2018-12-27T11:36:02.840Z,21.4
2018-12-27T11:36:45.821Z,21.4
2018-12-27T11:37:36.231Z,21.4
2018-12-27T11:38:26.223Z,21.4
2018-12-27T11:39:15.428Z,21.4
2018-12-27T11:40:05.806Z,21.4
2018-12-27T11:40:56.621Z,21.4
2018-12-27T11:41:46.730Z,21.4
2018-12-27T11:42:36.509Z,21.4
2018-12-27T11:43:26.564Z,21.4
2018-12-27T11:44:15.768Z,21.4
2018-12-27T11:45:06.955Z,21.4
2018-12-27T11:45:57.545Z,21.4
2018-12-27T11:46:45.968Z,21.4
2018-12-27T11:47:36.932Z,21.4
2018-12-27T11:48:26.645Z,21.4
2018-12-27T11:49:16.945Z,21.4
2018-12-27T11:50:40.439Z,21.4
2018-12-27T11:51:30.048Z,21.4
2018-12-27T11:52:21.898Z,21.4
2018-12-27T11:53:10.629Z,21.4
2018-12-27T11:54:00.947Z,21.3
2018-12-27T11:54:51.087Z,21.3
2018-12-27T11:55:41.074Z,21.4
2018-12-27T11:56:31.137Z,21.3
2018-12-27T11:57:20.072Z,21.3
2018-12-27T11:58:11.757Z,21.3
2018-12-27T11:59:01.034Z,21.3
2018-12-27T11:59:50.845Z,21.3
2018-12-27T12:00:41.135Z,21.3
2018-12-27T12:01:31.732Z,21.3
2018-12-27T12:02:21.265Z,21.2
2018-12-27T12:03:10.196Z,21.3